Time,TemperatureF,DewpointF,PressureIn,WindDirection,WindDirectionDegrees,WindSpeedMPH,WindSpeedGustMPH,Humidity,HourlyPrecipIn,Conditions,Clouds,dailyrainin,SoftwareType,DateUTC
2013-05-13 00:03:00,35.0,-99.9,-100.00,NW,325,1.0,5.0,-999,-99.99,,,-99.99,,2013-05-13 04:03:00,
2013-05-13 00:12:00,35.0,-99.9,-100.00,NW,325,1.0,5.0,-999,-99.99,,,-99.99,,2013-05-13 04:12:00,
2013-05-13 00:23:00,35.0,-99.9,-100.00,NW,325,1.0,5.0,-999,-99.99,,,-99.99,,2013-05-13 04:23:00,
2013-05-13 00:33:00,35.0,-99.9,-100.00,NW,325,1.0,5.0,-999,-99.99,,,-99.99,,2013-05-13 04:33:00,
2013-05-13 00:40:00,34.0,-99.9,-100.00,NW,325,3.0,5.0,-999,-99.99,,,-99.99,,2013-05-13 04:40:00,
2013-05-13 01:02:00,34.0,-99.9,-100.00,NW,325,3.0,5.0,-999,-99.99,,,-99.99,,2013-05-13 05:02:00,
2013-05-13 01:12:00,34.0,-99.9,-100.00,NW,325,3.0,5.0,-999,-99.99,,,-99.99,,2013-05-13 05:12:00,
2013-05-13 01:22:00,34.0,-99.9,-100.00,NW,325,3.0,5.0,-999,-99.99,,,-99.99,,2013-05-13 05:22:00,
2013-05-13 01:32:00,34.0,-99.9,-100.00,NW,325,3.0,5.0,-999,-99.99,,,-99.99,,2013-05-13 05:32:00,
2013-05-13 01:40:00,34.0,-99.9,-100.00,NW,317,4.0,6.0,-999,-99.99,,,-99.99,,2013-05-13 05:40:00,
2013-05-13 02:01:00,34.0,-99.9,-100.00,NW,317,4.0,6.0,-999,-99.99,,,-99.99,,2013-05-13 06:01:00,
2013-05-13 02:12:00,34.0,-99.9,-100.00,NW,317,4.0,6.0,-999,-99.99,,,-99.99,,2013-05-13 06:12:00,
2013-05-13 02:22:00,34.0,-99.9,-100.00,NW,317,4.0,6.0,-999,-99.99,,,-99.99,,2013-05-13 06:22:00,
2013-05-13 02:32:00,34.0,-99.9,-100.00,NW,317,4.0,6.0,-999,-99.99,,,-99.99,,2013-05-13 06:32:00,
2013-05-13 02:40:00,36.0,-99.9,-100.00,NW,316,8.0,12.0,-999,-99.99,,,-99.99,,2013-05-13 06:40:00,
2013-05-13 03:02:00,36.0,-99.9,-100.00,NW,316,8.0,12.0,-999,-99.99,,,-99.99,,2013-05-13 07:02:00,
2013-05-13 03:12:00,36.0,-99.9,-100.00,NW,316,8.0,12.0,-999,-99.99,,,-99.99,,2013-05-13 07:12:00,
2013-05-13 03:22:00,36.0,-99.9,-100.00,NW,316,8.0,12.0,-999,-99.99,,,-99.99,,2013-05-13 07:22:00,
2013-05-13 03:32:00,36.0,-99.9,-100.00,NW,316,8.0,12.0,-999,-99.99,,,-99.99,,2013-05-13 07:32:00,
2013-05-13 03:40:00,36.0,-99.9,-100.00,NW,312,9.0,12.0,-999,-99.99,,,-99.99,,2013-05-13 07:40:00,
2013-05-13 04:02:00,36.0,-99.9,-100.00,NW,312,9.0,12.0,-999,-99.99,,,-99.99,,2013-05-13 08:02:00,
2013-05-13 04:11:00,36.0,-99.9,-100.00,NW,312,9.0,12.0,-999,-99.99,,,-99.99,,2013-05-13 08:11:00,
2013-05-13 04:22:00,36.0,-99.9,-100.00,NW,312,9.0,12.0,-999,-99.99,,,-99.99,,2013-05-13 08:22:00,
2013-05-13 04:32:00,36.0,-99.9,-100.00,NW,312,9.0,12.0,-999,-99.99,,,-99.99,,2013-05-13 08:32:00,
2013-05-13 04:40:00,35.0,-99.9,-100.00,NW,318,6.0,12.0,-999,-99.99,,,-99.99,,2013-05-13 08:40:00,
2013-05-13 05:01:00,35.0,-99.9,-100.00,NW,318,6.0,12.0,-999,-99.99,,,-99.99,,2013-05-13 09:01:00,
2013-05-13 05:11:00,35.0,-99.9,-100.00,NW,318,6.0,12.0,-999,-99.99,,,-99.99,,2013-05-13 09:11:00,
2013-05-13 05:22:00,35.0,-99.9,-100.00,NW,318,6.0,12.0,-999,-99.99,,,-99.99,,2013-05-13 09:22:00,
2013-05-13 05:33:00,35.0,-99.9,-100.00,NW,318,6.0,12.0,-999,-99.99,,,-99.99,,2013-05-13 09:33:00,
2013-05-13 05:40:00,35.0,-99.9,-100.00,NW,322,5.0,8.0,-999,-99.99,,,-99.99,,2013-05-13 09:40:00,
2013-05-13 06:03:00,35.0,-99.9,-100.00,NW,322,5.0,8.0,-999,-99.99,,,-99.99,,2013-05-13 10:03:00,
2013-05-13 06:12:00,35.0,-99.9,-100.00,NW,322,5.0,8.0,-999,-99.99,,,-99.99,,2013-05-13 10:12:00,
2013-05-13 06:22:00,35.0,-99.9,-100.00,NW,322,5.0,8.0,-999,-99.99,,,-99.99,,2013-05-13 10:22:00,
2013-05-13 06:33:00,35.0,-99.9,-100.00,NW,322,5.0,8.0,-999,-99.99,,,-99.99,,2013-05-13 10:33:00,
2013-05-13 07:03:00,35.0,-99.9,-100.00,NW,315,9.0,48.0,-999,-99.99,,,-99.99,,2013-05-13 11:03:00,
2013-05-13 07:12:00,35.0,-99.9,-100.00,NW,315,9.0,48.0,-999,-99.99,,,-99.99,,2013-05-13 11:12:00,
2013-05-13 07:22:00,34.0,-99.9,-100.00,NW,312,8.0,48.0,-999,-99.99,,,-99.99,,2013-05-13 11:22:00,
2013-05-13 07:32:00,34.0,-99.9,-100.00,NW,312,8.0,48.0,-999,-99.99,,,-99.99,,2013-05-13 11:32:00,
2013-05-13 07:42:00,34.0,-99.9,-100.00,NW,312,8.0,48.0,-999,-99.99,,,-99.99,,2013-05-13 11:42:00,
2013-05-13 07:52:00,34.0,-99.9,-100.00,NW,312,8.0,48.0,-999,-99.99,,,-99.99,,2013-05-13 11:52:00,
2013-05-13 08:02:00,37.0,-99.9,-100.00,NNW,338,2.0,5.0,-999,-99.99,,,-99.99,,2013-05-13 12:02:00,
2013-05-13 08:12:00,37.0,-99.9,-100.00,NNW,338,2.0,5.0,-999,-99.99,,,-99.99,,2013-05-13 12:12:00,
2013-05-13 08:22:00,37.0,-99.9,-100.00,NNW,338,2.0,5.0,-999,-99.99,,,-99.99,,2013-05-13 12:22:00,
2013-05-13 08:32:00,37.0,-99.9,-100.00,NNW,338,2.0,5.0,-999,-99.99,,,-99.99,,2013-05-13 12:32:00,
2013-05-13 08:42:00,38.0,-99.9,-100.00,NW,312,5.0,33.0,-999,-99.99,,,-99.99,,2013-05-13 12:42:00,
2013-05-13 08:52:00,38.0,-99.9,-100.00,NW,312,5.0,33.0,-999,-99.99,,,-99.99,,2013-05-13 12:52:00,
2013-05-13 09:01:00,39.0,-99.9,-100.00,WNW,303,5.0,8.0,-999,-99.99,,,-99.99,,2013-05-13 13:01:00,
2013-05-13 09:11:00,39.0,-99.9,-100.00,WNW,303,5.0,8.0,-999,-99.99,,,-99.99,,2013-05-13 13:11:00,
2013-05-13 09:22:00,39.0,-99.9,-100.00,WNW,303,5.0,8.0,-999,-99.99,,,-99.99,,2013-05-13 13:22:00,
2013-05-13 09:32:00,38.0,-99.9,-100.00,NW,312,5.0,33.0,-999,-99.99,,,-99.99,,2013-05-13 13:32:00,
2013-05-13 09:40:00,39.0,-99.9,-100.00,WNW,292,6.0,10.0,-999,-99.99,,,-99.99,,2013-05-13 13:40:00,
2013-05-13 09:42:00,38.0,-99.9,-100.00,NW,312,5.0,33.0,-999,-99.99,,,-99.99,,2013-05-13 13:42:00,
2013-05-13 09:52:00,38.0,-99.9,-100.00,NW,312,5.0,33.0,-999,-99.99,,,-99.99,,2013-05-13 13:52:00,
2013-05-13 10:02:00,38.0,-99.9,-100.00,NW,312,5.0,33.0,-999,-99.99,,,-99.99,,2013-05-13 14:02:00,
2013-05-13 10:11:00,39.0,-99.9,-100.00,WNW,292,6.0,10.0,-999,-99.99,,,-99.99,,2013-05-13 14:11:00,
2013-05-13 10:22:00,39.0,-99.9,-100.00,WNW,292,6.0,10.0,-999,-99.99,,,-99.99,,2013-05-13 14:22:00,
2013-05-13 10:32:00,39.0,-99.9,-100.00,WNW,292,6.0,10.0,-999,-99.99,,,-99.99,,2013-05-13 14:32:00,
2013-05-13 10:40:00,42.0,-99.9,-100.00,West,279,6.0,8.0,-999,-99.99,,,-99.99,,2013-05-13 14:40:00,
2013-05-13 11:01:00,42.0,-99.9,-100.00,West,279,6.0,8.0,-999,-99.99,,,-99.99,,2013-05-13 15:01:00,
2013-05-13 11:11:00,42.0,-99.9,-100.00,West,279,6.0,8.0,-999,-99.99,,,-99.99,,2013-05-13 15:11:00,
2013-05-13 11:22:00,42.0,-99.9,-100.00,West,279,6.0,8.0,-999,-99.99,,,-99.99,,2013-05-13 15:22:00,
2013-05-13 11:32:00,42.0,-99.9,-100.00,West,279,6.0,8.0,-999,-99.99,,,-99.99,,2013-05-13 15:32:00,
2013-05-13 11:40:00,43.0,-99.9,-100.00,West,276,8.0,10.0,-999,-99.99,,,-99.99,,2013-05-13 15:40:00,
2013-05-13 12:03:00,43.0,-99.9,-100.00,West,276,8.0,10.0,-999,-99.99,,,-99.99,,2013-05-13 16:03:00,
2013-05-13 12:12:00,43.0,-99.9,-100.00,West,276,8.0,10.0,-999,-99.99,,,-99.99,,2013-05-13 16:12:00,
2013-05-13 12:22:00,43.0,-99.9,-100.00,West,276,8.0,10.0,-999,-99.99,,,-99.99,,2013-05-13 16:22:00,
2013-05-13 12:34:00,43.0,-99.9,-100.00,West,276,8.0,10.0,-999,-99.99,,,-99.99,,2013-05-13 16:34:00,
2013-05-13 12:40:00,42.0,-99.9,-100.00,SSW,196,11.0,14.0,-999,-99.99,,,-99.99,,2013-05-13 16:40:00,
2013-05-13 13:02:00,42.0,-99.9,-100.00,SSW,196,11.0,14.0,-999,-99.99,,,-99.99,,2013-05-13 17:02:00,
2013-05-13 13:12:00,42.0,-99.9,-100.00,SSW,196,11.0,14.0,-999,-99.99,,,-99.99,,2013-05-13 17:12:00,
2013-05-13 13:22:00,42.0,-99.9,-100.00,SSW,196,11.0,14.0,-999,-99.99,,,-99.99,,2013-05-13 17:22:00,
2013-05-13 13:32:00,42.0,-99.9,-100.00,SSW,196,11.0,14.0,-999,-99.99,,,-99.99,,2013-05-13 17:32:00,
2013-05-13 13:40:00,44.0,-99.9,-100.00,SSW,196,12.0,14.0,-999,-99.99,,,-99.99,,2013-05-13 17:40:00,
2013-05-13 14:04:00,44.0,-99.9,-100.00,SSW,196,12.0,14.0,-999,-99.99,,,-99.99,,2013-05-13 18:04:00,
2013-05-13 14:13:00,44.0,-99.9,-100.00,SSW,196,12.0,14.0,-999,-99.99,,,-99.99,,2013-05-13 18:13:00,
2013-05-13 14:23:00,44.0,-99.9,-100.00,SSW,196,12.0,14.0,-999,-99.99,,,-99.99,,2013-05-13 18:23:00,
2013-05-13 14:32:00,44.0,-99.9,-100.00,SSW,196,12.0,14.0,-999,-99.99,,,-99.99,,2013-05-13 18:32:00,
2013-05-13 14:40:00,42.0,-99.9,-100.00,South,187,19.0,21.0,-999,-99.99,,,-99.99,,2013-05-13 18:40:00,
2013-05-13 15:01:00,42.0,-99.9,-100.00,South,187,19.0,21.0,-999,-99.99,,,-99.99,,2013-05-13 19:01:00,
2013-05-13 15:12:00,42.0,-99.9,-100.00,South,187,19.0,21.0,-999,-99.99,,,-99.99,,2013-05-13 19:12:00,
2013-05-13 15:22:00,42.0,-99.9,-100.00,South,187,19.0,21.0,-999,-99.99,,,-99.99,,2013-05-13 19:22:00,
2013-05-13 15:33:00,42.0,-99.9,-100.00,South,187,19.0,21.0,-999,-99.99,,,-99.99,,2013-05-13 19:33:00,
2013-05-13 15:40:00,42.0,-99.9,-100.00,South,191,21.0,24.0,-999,-99.99,,,-99.99,,2013-05-13 19:40:00,
2013-05-13 16:02:00,42.0,-99.9,-100.00,South,191,21.0,24.0,-999,-99.99,,,-99.99,,2013-05-13 20:02:00,
2013-05-13 16:11:00,42.0,-99.9,-100.00,South,191,21.0,24.0,-999,-99.99,,,-99.99,,2013-05-13 20:11:00,
2013-05-13 16:23:00,42.0,-99.9,-100.00,South,191,21.0,24.0,-999,-99.99,,,-99.99,,2013-05-13 20:23:00,
2013-05-13 16:34:00,42.0,-99.9,-100.00,South,191,21.0,24.0,-999,-99.99,,,-99.99,,2013-05-13 20:34:00,
2013-05-13 16:40:00,42.0,-99.9,-100.00,South,185,20.0,25.0,-999,-99.99,,,-99.99,,2013-05-13 20:40:00,
2013-05-13 17:03:00,42.0,-99.9,-100.00,South,185,20.0,25.0,-999,-99.99,,,-99.99,,2013-05-13 21:03:00,
2013-05-13 17:14:00,42.0,-99.9,-100.00,South,185,20.0,25.0,-999,-99.99,,,-99.99,,2013-05-13 21:14:00,
2013-05-13 17:23:00,42.0,-99.9,-100.00,South,185,20.0,25.0,-999,-99.99,,,-99.99,,2013-05-13 21:23:00,
2013-05-13 17:34:00,42.0,-99.9,-100.00,South,185,20.0,25.0,-999,-99.99,,,-99.99,,2013-05-13 21:34:00,
2013-05-13 17:40:00,43.0,-99.9,-100.00,South,185,20.0,25.0,-999,-99.99,,,-99.99,,2013-05-13 21:40:00,
2013-05-13 18:03:00,43.0,-99.9,-100.00,South,185,20.0,25.0,-999,-99.99,,,-99.99,,2013-05-13 22:03:00,
2013-05-13 18:12:00,43.0,-99.9,-100.00,South,185,20.0,25.0,-999,-99.99,,,-99.99,,2013-05-13 22:12:00,
2013-05-13 18:23:00,43.0,-99.9,-100.00,South,185,20.0,25.0,-999,-99.99,,,-99.99,,2013-05-13 22:23:00,
2013-05-13 18:32:00,43.0,-99.9,-100.00,South,185,20.0,25.0,-999,-99.99,,,-99.99,,2013-05-13 22:32:00,
2013-05-13 18:40:00,43.0,-99.9,-100.00,South,186,19.0,24.0,-999,-99.99,,,-99.99,,2013-05-13 22:40:00,
2013-05-13 19:02:00,43.0,-99.9,-100.00,South,186,19.0,24.0,-999,-99.99,,,-99.99,,2013-05-13 23:02:00,
2013-05-13 19:13:00,43.0,-99.9,-100.00,South,186,19.0,24.0,-999,-99.99,,,-99.99,,2013-05-13 23:13:00,
2013-05-13 19:23:00,43.0,-99.9,-100.00,South,186,19.0,24.0,-999,-99.99,,,-99.99,,2013-05-13 23:23:00,
2013-05-13 19:34:00,43.0,-99.9,-100.00,South,186,19.0,24.0,-999,-99.99,,,-99.99,,2013-05-13 23:34:00,
2013-05-13 20:03:00,41.0,-99.9,-100.00,South,185,24.0,28.0,-999,-99.99,,,-99.99,,2013-05-14 00:03:00,
2013-05-13 20:13:00,41.0,-99.9,-100.00,South,185,24.0,28.0,-999,-99.99,,,-99.99,,2013-05-14 00:13:00,
2013-05-13 20:23:00,41.0,-99.9,-100.00,South,185,24.0,28.0,-999,-99.99,,,-99.99,,2013-05-14 00:23:00,
2013-05-13 20:32:00,41.0,-99.9,-100.00,South,181,23.0,29.0,-999,-99.99,,,-99.99,,2013-05-14 00:32:00,
2013-05-13 20:42:00,41.0,-99.9,-100.00,South,181,23.0,29.0,-999,-99.99,,,-99.99,,2013-05-14 00:42:00,
2013-05-13 20:52:00,41.0,-99.9,-100.00,South,181,23.0,29.0,-999,-99.99,,,-99.99,,2013-05-14 00:52:00,
2013-05-13 21:02:00,41.0,-99.9,-100.00,South,186,25.0,29.0,-999,-99.99,,,-99.99,,2013-05-14 01:02:00,
2013-05-13 21:11:00,41.0,-99.9,-100.00,South,186,25.0,29.0,-999,-99.99,,,-99.99,,2013-05-14 01:11:00,
2013-05-13 21:21:00,41.0,-99.9,-100.00,South,186,25.0,29.0,-999,-99.99,,,-99.99,,2013-05-14 01:21:00,
2013-05-13 21:32:00,41.0,-99.9,-100.00,South,186,24.0,29.0,-999,-99.99,,,-99.99,,2013-05-14 01:32:00,
2013-05-13 21:40:00,41.0,-99.9,-100.00,South,187,24.0,26.0,-999,-99.99,,,-99.99,,2013-05-14 01:40:00,
2013-05-13 21:43:00,41.0,-99.9,-100.00,South,186,24.0,29.0,-999,-99.99,,,-99.99,,2013-05-14 01:43:00,
2013-05-13 21:53:00,41.0,-99.9,-100.00,South,186,24.0,29.0,-999,-99.99,,,-99.99,,2013-05-14 01:53:00,
2013-05-13 22:03:00,41.0,-99.9,-100.00,South,187,24.0,26.0,-999,-99.99,,,-99.99,,2013-05-14 02:03:00,
2013-05-13 22:12:00,41.0,-99.9,-100.00,South,187,24.0,26.0,-999,-99.99,,,-99.99,,2013-05-14 02:12:00,
2013-05-13 22:22:00,41.0,-99.9,-100.00,South,187,24.0,26.0,-999,-99.99,,,-99.99,,2013-05-14 02:22:00,
2013-05-13 22:32:00,41.0,-99.9,-100.00,South,187,24.0,26.0,-999,-99.99,,,-99.99,,2013-05-14 02:32:00,
2013-05-13 22:40:00,42.0,-99.9,-100.00,SSW,192,19.0,25.0,-999,-99.99,,,-99.99,,2013-05-14 02:40:00,
2013-05-13 23:01:00,42.0,-99.9,-100.00,SSW,192,19.0,25.0,-999,-99.99,,,-99.99,,2013-05-14 03:01:00,
2013-05-13 23:11:00,42.0,-99.9,-100.00,SSW,192,19.0,25.0,-999,-99.99,,,-99.99,,2013-05-14 03:11:00,
2013-05-13 23:22:00,42.0,-99.9,-100.00,SSW,192,19.0,25.0,-999,-99.99,,,-99.99,,2013-05-14 03:22:00,
2013-05-13 23:33:00,42.0,-99.9,-100.00,SSW,192,19.0,25.0,-999,-99.99,,,-99.99,,2013-05-14 03:33:00,
2013-05-13 23:40:00,43.0,-99.9,-100.00,SSW,213,22.0,26.0,-999,-99.99,,,-99.99,,2013-05-14 03:40:00,